sensor_id;sensor_type;location;lat;lon;timestamp;pressure;altitude;pressure_sealevel;temperature;humidity
39309;BME280;26019;47.510;19.122;2023-07-24T00:06:49;99976.78;;;21.70;100.00
39309;BME280;26019;47.510;19.122;2023-07-24T00:27:00;99968.69;;;21.43;100.00
39309;BME280;26019;47.510;19.122;2023-07-24T00:37:05;99951.75;;;21.32;100.00
39309;BME280;26019;47.510;19.122;2023-07-24T00:47:06;99944.72;;;21.33;100.00
39309;BME280;26019;47.510;19.122;2023-07-24T00:57:08;99931.59;;;21.33;100.00
39309;BME280;26019;47.510;19.122;2023-07-24T01:07:10;99928.28;;;21.29;100.00
39309;BME280;26019;47.510;19.122;2023-07-24T01:17:14;99921.31;;;21.28;100.00
39309;BME280;26019;47.510;19.122;2023-07-24T01:27:23;99923.47;;;21.22;100.00
39309;BME280;26019;47.510;19.122;2023-07-24T01:37:26;99923.03;;;21.13;100.00
39309;BME280;26019;47.510;19.122;2023-07-24T01:47:30;99910.84;;;21.12;100.00
39309;BME280;26019;47.510;19.122;2023-07-24T01:57:33;99911.56;;;21.00;100.00
39309;BME280;26019;47.510;19.122;2023-07-24T02:07:35;99912.66;;;20.96;100.00
39309;BME280;26019;47.510;19.122;2023-07-24T02:17:37;99911.13;;;20.92;100.00
39309;BME280;26019;47.510;19.122;2023-07-24T02:27:40;99908.84;;;20.85;100.00
39309;BME280;26019;47.510;19.122;2023-07-24T02:37:43;99914.56;;;20.76;100.00
39309;BME280;26019;47.510;19.122;2023-07-24T02:47:46;99907.22;;;20.67;100.00
39309;BME280;26019;47.510;19.122;2023-07-24T02:57:50;99911.25;;;20.56;100.00
39309;BME280;26019;47.510;19.122;2023-07-24T03:07:52;99907.88;;;20.54;100.00
39309;BME280;26019;47.510;19.122;2023-07-24T03:17:58;99903.97;;;20.46;100.00
39309;BME280;26019;47.510;19.122;2023-07-24T03:27:59;99890.13;;;20.26;100.00
39309;BME280;26019;47.510;19.122;2023-07-24T03:38:01;99886.47;;;20.12;100.00
39309;BME280;26019;47.510;19.122;2023-07-24T03:48:04;99895.50;;;20.07;100.00
39309;BME280;26019;47.510;19.122;2023-07-24T03:58:06;99887.63;;;20.07;100.00
39309;BME280;26019;47.510;19.122;2023-07-24T04:08:10;99899.13;;;20.04;100.00
39309;BME280;26019;47.510;19.122;2023-07-24T04:18:12;99895.19;;;20.13;100.00
39309;BME280;26019;47.510;19.122;2023-07-24T04:28:18;99888.28;;;20.28;100.00
39309;BME280;26019;47.510;19.122;2023-07-24T04:38:20;99873.41;;;20.44;100.00
39309;BME280;26019;47.510;19.122;2023-07-24T04:48:24;99876.38;;;20.70;100.00
39309;BME280;26019;47.510;19.122;2023-07-24T04:58:25;99896.03;;;20.95;100.00
39309;BME280;26019;47.510;19.122;2023-07-24T05:08:28;99895.47;;;21.37;100.00
39309;BME280;26019;47.510;19.122;2023-07-24T05:18:30;99901.31;;;21.56;100.00
39309;BME280;26019;47.510;19.122;2023-07-24T05:28:32;99897.47;;;21.78;100.00
39309;BME280;26019;47.510;19.122;2023-07-24T05:38:34;99899.75;;;22.13;100.00
39309;BME280;26019;47.510;19.122;2023-07-24T05:48:37;99893.53;;;22.29;100.00
39309;BME280;26019;47.510;19.122;2023-07-24T05:58:39;99887.50;;;22.70;100.00
39309;BME280;26019;47.510;19.122;2023-07-24T06:08:45;99885.13;;;22.80;100.00
39309;BME280;26019;47.510;19.122;2023-07-24T06:18:49;99871.91;;;23.22;100.00
39309;BME280;26019;47.510;19.122;2023-07-24T06:28:52;99869.22;;;23.49;100.00
39309;BME280;26019;47.510;19.122;2023-07-24T06:38:53;99875.59;;;23.73;100.00
39309;BME280;26019;47.510;19.122;2023-07-24T06:49:02;99876.44;;;24.12;100.00
39309;BME280;26019;47.510;19.122;2023-07-24T06:59:04;99868.44;;;24.51;100.00
39309;BME280;26019;47.510;19.122;2023-07-24T07:09:06;99863.50;;;24.83;100.00
39309;BME280;26019;47.510;19.122;2023-07-24T07:19:10;99854.13;;;25.50;100.00
39309;BME280;26019;47.510;19.122;2023-07-24T07:29:12;99846.38;;;26.06;100.00
39309;BME280;26019;47.510;19.122;2023-07-24T07:39:13;99826.94;;;26.51;100.00
39309;BME280;26019;47.510;19.122;2023-07-24T07:49:15;99823.47;;;26.94;100.00
39309;BME280;26019;47.510;19.122;2023-07-24T07:59:17;99818.91;;;27.60;100.00
39309;BME280;26019;47.510;19.122;2023-07-24T08:09:19;99820.88;;;28.50;97.92
39309;BME280;26019;47.510;19.122;2023-07-24T08:19:28;99811.97;;;29.00;85.29
39309;BME280;26019;47.510;19.122;2023-07-24T08:29:29;99806.97;;;29.74;79.43
39309;BME280;26019;47.510;19.122;2023-07-24T08:39:31;99812.56;;;30.08;73.67
39309;BME280;26019;47.510;19.122;2023-07-24T08:49:36;99809.06;;;29.70;70.98
39309;BME280;26019;47.510;19.122;2023-07-24T08:59:38;99787.38;;;30.03;63.85
39309;BME280;26019;47.510;19.122;2023-07-24T09:09:40;99788.50;;;29.90;60.48
39309;BME280;26019;47.510;19.122;2023-07-24T09:19:42;99768.72;;;30.67;56.31
39309;BME280;26019;47.510;19.122;2023-07-24T09:29:47;99759.88;;;32.15;49.22
39309;BME280;26019;47.510;19.122;2023-07-24T09:39:51;99751.38;;;35.23;40.79
39309;BME280;26019;47.510;19.122;2023-07-24T09:49:55;99740.47;;;36.72;36.01
39309;BME280;26019;47.510;19.122;2023-07-24T10:00:01;99728.66;;;36.73;35.37
39309;BME280;26019;47.510;19.122;2023-07-24T10:10:04;99720.44;;;37.45;32.40
39309;BME280;26019;47.510;19.122;2023-07-24T10:20:08;99700.38;;;38.97;29.24
39309;BME280;26019;47.510;19.122;2023-07-24T10:30:14;99705.53;;;39.64;27.63
39309;BME280;26019;47.510;19.122;2023-07-24T10:40:46;99667.47;;;40.05;26.78
39309;BME280;26019;47.510;19.122;2023-07-24T10:50:51;99671.22;;;40.04;27.71
39309;BME280;26019;47.510;19.122;2023-07-24T11:00:56;99661.50;;;42.19;24.50
39309;BME280;26019;47.510;19.122;2023-07-24T11:11:00;99639.13;;;40.58;25.77
39309;BME280;26019;47.510;19.122;2023-07-24T11:21:04;99618.66;;;40.62;24.84
39309;BME280;26019;47.510;19.122;2023-07-24T11:31:07;99611.75;;;39.33;26.13
39309;BME280;26019;47.510;19.122;2023-07-24T11:41:10;99583.72;;;42.37;21.99
39309;BME280;26019;47.510;19.122;2023-07-24T11:51:12;99560.13;;;43.31;21.06
39309;BME280;26019;47.510;19.122;2023-07-24T12:01:19;99546.72;;;43.12;21.69
39309;BME280;26019;47.510;19.122;2023-07-24T12:11:28;99537.63;;;42.13;21.85
39309;BME280;26019;47.510;19.122;2023-07-24T12:21:30;99515.09;;;47.33;17.59
39309;BME280;26019;47.510;19.122;2023-07-24T12:31:33;99502.22;;;41.84;21.54
39309;BME280;26019;47.510;19.122;2023-07-24T12:41:36;99488.25;;;41.33;23.00
39309;BME280;26019;47.510;19.122;2023-07-24T12:51:37;99477.38;;;43.10;20.57
39309;BME280;26019;47.510;19.122;2023-07-24T13:01:39;99463.53;;;42.94;21.83
39309;BME280;26019;47.510;19.122;2023-07-24T13:11:42;99452.25;;;41.68;21.96
39309;BME280;26019;47.510;19.122;2023-07-24T13:21:44;99438.69;;;42.45;22.13
39309;BME280;26019;47.510;19.122;2023-07-24T13:31:51;99424.28;;;41.68;22.85
39309;BME280;26019;47.510;19.122;2023-07-24T13:41:57;99407.47;;;42.88;20.78
39309;BME280;26019;47.510;19.122;2023-07-24T13:52:00;99408.56;;;42.58;22.25
39309;BME280;26019;47.510;19.122;2023-07-24T14:02:02;99367.09;;;41.45;23.76
39309;BME280;26019;47.510;19.122;2023-07-24T14:12:06;99351.41;;;37.45;28.55
39309;BME280;26019;47.510;19.122;2023-07-24T14:22:08;99330.41;;;35.40;29.53
39309;BME280;26019;47.510;19.122;2023-07-24T14:32:12;99304.34;;;38.59;25.92
39309;BME280;26019;47.510;19.122;2023-07-24T14:42:15;99303.72;;;38.89;25.21
39309;BME280;26019;47.510;19.122;2023-07-24T14:52:20;99275.19;;;36.70;27.21
39309;BME280;26019;47.510;19.122;2023-07-24T15:02:21;99243.88;;;34.88;28.52
39309;BME280;26019;47.510;19.122;2023-07-24T15:12:24;99252.41;;;37.13;26.15
39309;BME280;26019;47.510;19.122;2023-07-24T15:22:27;99223.63;;;33.99;30.94
39309;BME280;26019;47.510;19.122;2023-07-24T15:32:29;99225.53;;;39.94;23.88
39309;BME280;26019;47.510;19.122;2023-07-24T15:42:33;99206.38;;;39.46;23.61
39309;BME280;26019;47.510;19.122;2023-07-24T15:52:35;99230.16;;;35.26;28.90
39309;BME280;26019;47.510;19.122;2023-07-24T16:02:39;99234.13;;;34.80;29.65
39309;BME280;26019;47.510;19.122;2023-07-24T16:12:43;99219.81;;;35.23;28.62
39309;BME280;26019;47.510;19.122;2023-07-24T16:22:46;99201.00;;;32.96;31.89
39309;BME280;26019;47.510;19.122;2023-07-24T16:32:47;99177.69;;;33.05;32.75
39309;BME280;26019;47.510;19.122;2023-07-24T16:42:52;99168.47;;;33.08;33.82
39309;BME280;26019;47.510;19.122;2023-07-24T16:52:57;99171.25;;;31.83;36.22
39309;BME280;26019;47.510;19.122;2023-07-24T17:03:01;99176.00;;;31.72;36.31
39309;BME280;26019;47.510;19.122;2023-07-24T17:13:03;99165.09;;;31.42;37.49
39309;BME280;26019;47.510;19.122;2023-07-24T17:23:06;99153.13;;;31.13;38.54
39309;BME280;26019;47.510;19.122;2023-07-24T17:33:09;99157.03;;;30.94;39.55
39309;BME280;26019;47.510;19.122;2023-07-24T17:43:18;99158.56;;;30.64;41.10
39309;BME280;26019;47.510;19.122;2023-07-24T17:53:27;99146.56;;;30.35;42.01
39309;BME280;26019;47.510;19.122;2023-07-24T18:03:33;99139.38;;;30.10;42.88
39309;BME280;26019;47.510;19.122;2023-07-24T18:13:35;99133.16;;;29.93;43.94
39309;BME280;26019;47.510;19.122;2023-07-24T18:23:39;99124.81;;;29.72;45.15
39309;BME280;26019;47.510;19.122;2023-07-24T18:33:41;99102.81;;;29.61;46.32
39309;BME280;26019;47.510;19.122;2023-07-24T18:43:45;99105.59;;;29.43;47.59
39309;BME280;26019;47.510;19.122;2023-07-24T18:53:49;99123.84;;;29.38;49.19
39309;BME280;26019;47.510;19.122;2023-07-24T19:03:53;99133.72;;;29.19;50.82
39309;BME280;26019;47.510;19.122;2023-07-24T19:13:55;99122.63;;;28.98;52.93
39309;BME280;26019;47.510;19.122;2023-07-24T19:23:58;99138.19;;;28.84;55.77
39309;BME280;26019;47.510;19.122;2023-07-24T19:34:02;99140.34;;;28.63;58.89
39309;BME280;26019;47.510;19.122;2023-07-24T19:44:06;99137.53;;;28.46;61.33
39309;BME280;26019;47.510;19.122;2023-07-24T19:54:09;99142.56;;;28.31;63.47
39309;BME280;26019;47.510;19.122;2023-07-24T20:04:11;99134.59;;;28.13;66.04
39309;BME280;26019;47.510;19.122;2023-07-24T20:14:13;99107.63;;;27.90;68.40
39309;BME280;26019;47.510;19.122;2023-07-24T20:24:16;99087.66;;;27.67;71.01
39309;BME280;26019;47.510;19.122;2023-07-24T20:34:18;99090.69;;;27.54;72.41
39309;BME280;26019;47.510;19.122;2023-07-24T20:44:21;99071.13;;;27.27;75.80
39309;BME280;26019;47.510;19.122;2023-07-24T20:54:23;99085.88;;;27.02;78.34
39309;BME280;26019;47.510;19.122;2023-07-24T21:04:25;99066.44;;;26.83;79.14
39309;BME280;26019;47.510;19.122;2023-07-24T21:14:27;99057.09;;;26.69;78.55
39309;BME280;26019;47.510;19.122;2023-07-24T21:24:30;99083.53;;;26.42;80.73
39309;BME280;26019;47.510;19.122;2023-07-24T21:34:32;99110.41;;;26.57;74.97
39309;BME280;26019;47.510;19.122;2023-07-24T21:44:34;99126.97;;;26.68;67.91
39309;BME280;26019;47.510;19.122;2023-07-24T21:54:38;99149.97;;;26.58;69.37
39309;BME280;26019;47.510;19.122;2023-07-24T22:04:43;99161.16;;;26.32;75.78
39309;BME280;26019;47.510;19.122;2023-07-24T22:14:45;99171.41;;;26.06;76.82
39309;BME280;26019;47.510;19.122;2023-07-24T22:24:48;99170.66;;;25.84;76.76
39309;BME280;26019;47.510;19.122;2023-07-24T22:34:53;99175.75;;;25.56;78.20
39309;BME280;26019;47.510;19.122;2023-07-24T22:44:55;99151.56;;;25.40;72.78
39309;BME280;26019;47.510;19.122;2023-07-24T22:54:59;99090.25;;;25.15;69.89
39309;BME280;26019;47.510;19.122;2023-07-24T23:05:08;99155.16;;;25.60;62.18
39309;BME280;26019;47.510;19.122;2023-07-24T23:15:10;99178.50;;;25.55;61.84
39309;BME280;26019;47.510;19.122;2023-07-24T23:25:11;99173.28;;;25.12;68.24
39309;BME280;26019;47.510;19.122;2023-07-24T23:35:13;99236.19;;;25.18;65.97
39309;BME280;26019;47.510;19.122;2023-07-24T23:45:15;99283.25;;;25.25;65.19
39309;BME280;26019;47.510;19.122;2023-07-24T23:55:17;99303.50;;;25.14;63.57
